Weather reports worldwide

Advertisment
Bridgefoot, United Kingdom (99137): temperature & dewpoint: 15.05.2019 04:00:00 - 21.05.2019 04:00:00 (BST)Bridgefoot, United Kingdom (99137): precipitation: 15.05.2019 04:00:00 - 21.05.2019 04:00:00 (BST)
Date & Time tt [°C] td [°C] rr [mm]
21.05.2019 04:00:00 5,7 5,5 0,0
21.05.2019 03:00:00 5,8 5,4 0,0
21.05.2019 02:00:00 7,1 6,4 0,0
21.05.2019 01:00:00 8,8 7,2 0,0
21.05.2019 00:00:00 9,4 7,0 0,0
20.05.2019 23:00:00 11,1 7,4 0,0
20.05.2019 22:00:00 10,0 7,8 0,0
20.05.2019 21:00:00 11,6 8,4 0,0
20.05.2019 20:00:00 12,7 8,3 0,0
20.05.2019 19:00:00 13,9 8,4 0,0
20.05.2019 18:00:00 13,8 8,9 0,0
20.05.2019 17:00:00 14,5 9,4 0,0
20.05.2019 16:00:00 14,2 8,0 0,0
20.05.2019 15:00:00 14,3 10,4 0,0
20.05.2019 14:00:00 - - 0,0
20.05.2019 13:00:00 13,1 7,9 0,0
20.05.2019 12:00:00 14,4 8,6 0,0
20.05.2019 11:00:00 13,4 8,2 0,0
20.05.2019 10:00:00 - - -
20.05.2019 09:00:00 11,7 7,8 0,0
20.05.2019 08:00:00 10,4 9,8 0,0
20.05.2019 07:00:00 9,3 9,2 0,0
20.05.2019 06:00:00 7,8 7,6 0,0
20.05.2019 05:00:00 8,0 7,7 0,0
20.05.2019 04:00:00 8,6 8,2 0,0
20.05.2019 03:00:00 9,0 8,6 0,0
20.05.2019 02:00:00 9,2 8,7 0,0
20.05.2019 01:00:00 9,3 8,8 0,0
20.05.2019 00:00:00 9,3 8,7 0,0
19.05.2019 23:00:00 9,5 8,7 0,0
19.05.2019 22:00:00 10,7 9,4 0,0
19.05.2019 21:00:00 11,0 9,4 0,0
19.05.2019 20:00:00 11,4 9,4 0,0
19.05.2019 19:00:00 11,8 9,3 0,0
19.05.2019 18:00:00 12,6 9,1 0,0
19.05.2019 17:00:00 13,0 9,6 0,0
19.05.2019 16:00:00 12,8 9,6 0,0
19.05.2019 15:00:00 13,5 8,9 0,0
19.05.2019 14:00:00 13,4 10,0 0,0
19.05.2019 13:00:00 13,7 10,0 0,0
19.05.2019 12:00:00 12,9 8,9 0,0
19.05.2019 11:00:00 11,5 9,3 0,0
19.05.2019 10:00:00 11,5 9,7 0,0
19.05.2019 09:00:00 10,5 9,0 0,0
19.05.2019 08:00:00 10,5 9,8 0,0
19.05.2019 07:00:00 10,0 9,7 0,0
19.05.2019 06:00:00 9,7 9,7 0,0
19.05.2019 05:00:00 9,7 9,7 0,4
19.05.2019 04:00:00 9,3 9,3 0,2
19.05.2019 03:00:00 7,3 7,2 0,0
19.05.2019 02:00:00 6,0 5,8 0,0
19.05.2019 01:00:00 6,7 6,3 0,0
19.05.2019 00:00:00 7,1 6,6 0,0
18.05.2019 23:00:00 8,3 7,6 0,0
18.05.2019 22:00:00 9,0 8,0 0,0
18.05.2019 21:00:00 10,0 8,4 0,0
18.05.2019 20:00:00 11,8 9,1 0,0
18.05.2019 19:00:00 12,7 9,2 0,0
18.05.2019 18:00:00 12,6 9,1 0,0
18.05.2019 17:00:00 14,8 8,7 0,0
18.05.2019 16:00:00 14,1 8,7 0,0
18.05.2019 15:00:00 14,1 8,5 0,0
18.05.2019 14:00:00 14,9 9,5 0,0
18.05.2019 13:00:00 13,7 8,5 0,0
18.05.2019 12:00:00 12,4 8,6 0,0
18.05.2019 11:00:00 11,9 8,4 0,0
18.05.2019 10:00:00 12,7 8,3 0,0
18.05.2019 09:00:00 13,0 8,4 0,0
18.05.2019 08:00:00 11,6 8,1 0,0
18.05.2019 07:00:00 10,3 8,4 0,0
18.05.2019 06:00:00 9,8 8,2 0,0
18.05.2019 05:00:00 9,8 8,0 0,0
18.05.2019 04:00:00 9,9 7,8 0,0
18.05.2019 03:00:00 10,1 7,8 0,0
18.05.2019 02:00:00 10,3 7,6 0,0
18.05.2019 01:00:00 10,5 7,1 0,0
18.05.2019 00:00:00 10,8 6,7 0,0
17.05.2019 23:00:00 11,6 6,8 0,0
17.05.2019 22:00:00 12,5 7,0 0,0
17.05.2019 21:00:00 14,4 5,6 0,0
17.05.2019 20:00:00 15,2 8,3 0,0
17.05.2019 19:00:00 16,1 7,2 0,0
17.05.2019 18:00:00 16,8 5,2 0,0
17.05.2019 17:00:00 18,5 6,0 0,0
17.05.2019 16:00:00 18,2 5,0 0,0
17.05.2019 15:00:00 18,5 6,3 0,0
17.05.2019 14:00:00 19,2 6,5 0,0
17.05.2019 13:00:00 17,3 6,4 0,0
17.05.2019 12:00:00 16,3 7,5 0,0
17.05.2019 11:00:00 14,5 7,4 0,0
17.05.2019 10:00:00 13,8 10,0 0,0
17.05.2019 09:00:00 10,0 8,4 0,0
17.05.2019 08:00:00 8,5 7,2 1,0
17.05.2019 07:00:00 9,0 6,6 0,0
17.05.2019 06:00:00 8,9 5,8 0,0
17.05.2019 05:00:00 9,0 6,0 0,0
17.05.2019 04:00:00 9,4 4,8 0,0
17.05.2019 03:00:00 10,3 3,2 0,0
17.05.2019 02:00:00 10,8 2,2 0,0
17.05.2019 01:00:00 11,1 2,3 0,0
17.05.2019 00:00:00 11,2 2,4 0,0
16.05.2019 23:00:00 10,3 3,3 0,0
16.05.2019 22:00:00 10,8 4,1 0,0
16.05.2019 21:00:00 11,1 3,3 0,0
16.05.2019 20:00:00 14,3 4,6 0,0
16.05.2019 19:00:00 15,6 6,2 0,0
16.05.2019 18:00:00 15,3 6,6 0,0
16.05.2019 17:00:00 16,7 6,9 0,0
16.05.2019 16:00:00 18,1 4,6 0,0
16.05.2019 15:00:00 19,2 3,9 0,0
16.05.2019 14:00:00 18,8 4,2 0,0
16.05.2019 13:00:00 16,8 5,9 0,0
16.05.2019 12:00:00 15,8 6,4 0,0
16.05.2019 11:00:00 14,9 7,8 0,0
16.05.2019 10:00:00 15,2 7,1 0,0
16.05.2019 09:00:00 14,0 7,3 0,0
16.05.2019 08:00:00 12,5 8,8 0,0
16.05.2019 07:00:00 11,8 10,0 0,0
16.05.2019 06:00:00 11,6 9,9 0,0
16.05.2019 05:00:00 11,2 9,9 0,0
16.05.2019 04:00:00 11,2 9,8 0,0
16.05.2019 03:00:00 10,7 9,7 0,0
16.05.2019 02:00:00 10,0 9,3 0,0
16.05.2019 01:00:00 9,2 8,0 0,0
16.05.2019 00:00:00 10,1 8,8 0,0
15.05.2019 23:00:00 10,8 8,7 0,0
15.05.2019 22:00:00 12,9 9,3 0,0
15.05.2019 21:00:00 15,2 8,7 0,0
15.05.2019 20:00:00 17,6 8,5 0,0
15.05.2019 19:00:00 17,8 9,1 0,0
15.05.2019 18:00:00 17,0 8,8 0,0
15.05.2019 17:00:00 17,9 7,8 0,0
15.05.2019 16:00:00 19,1 9,2 0,0
15.05.2019 15:00:00 19,5 9,4 0,0
15.05.2019 14:00:00 19,4 9,2 0,0
15.05.2019 13:00:00 18,8 10,3 0,0
15.05.2019 12:00:00 17,7 10,1 0,0
15.05.2019 11:00:00 18,2 10,4 0,0
15.05.2019 10:00:00 17,3 9,8 0,0
15.05.2019 09:00:00 15,9 10,1 0,0
15.05.2019 08:00:00 11,7 10,7 0,0
15.05.2019 07:00:00 7,1 7,1 0,0
15.05.2019 06:00:00 4,3 4,0 0,0
15.05.2019 05:00:00 4,4 4,0 0,0
15.05.2019 04:00:00 4,5 3,9 0,0

tt = temperature
td = dewpoint
rr = precipitation

Next stations